Time;durP1;ratioP1;P1;durP2;ratioP2;P2;SDS_P1;SDS_P2;PMS_P1;PMS_P2;Temp;Humidity;BMP_temperature;BMP_pressure;BME280_temperature;BME280_humidity;BME280_pressure;Samples;Min_cycle;Max_cycle;Signal;HPM_P1;HPM_P2
2022/04/06 00:01:24;;;;;;;8.27;6.73;;;10.50;80.80;;;;;;10280998;28;20391;-88
2022/04/06 00:06:27;;;;;;;8.23;6.50;;;9.70;88.50;;;;;;10260148;28;20238;-88
2022/04/06 00:11:49;;;;;;;8.30;5.50;;;8.80;92.20;;;;;;10256945;28;20268;-88
2022/04/06 00:16:52;;;;;;;13.13;7.53;;;9.40;89.60;;;;;;10296693;28;20248;-89
2022/04/06 00:21:54;;;;;;;5.20;3.50;;;8.60;94.00;;;;;;10295350;28;20244;-88
2022/04/06 00:26:57;;;;;;;7.33;4.50;;;9.50;86.20;;;;;;10274391;28;20363;-89
2022/04/06 00:31:59;;;;;;;9.50;5.83;;;9.30;88.20;;;;;;10298187;28;20265;-88
2022/04/06 00:37:02;;;;;;;9.27;4.77;;;9.70;86.80;;;;;;10283422;28;20237;-88
2022/04/06 00:42:05;;;;;;;9.00;4.97;;;9.00;90.10;;;;;;10285230;28;20295;-88
2022/04/06 00:47:08;;;;;;;9.70;5.63;;;8.80;92.80;;;;;;10260627;28;20237;-88
2022/04/06 00:52:11;;;;;;;3.67;2.90;;;8.70;93.90;;;;;;10266914;28;20261;-88
2022/04/06 00:57:14;;;;;;;8.27;4.37;;;8.80;90.60;;;;;;10271470;28;20315;-88
2022/04/06 01:02:29;;;;;;;6.30;4.47;;;9.40;88.90;;;;;;10243795;28;20302;-88
2022/04/06 01:07:32;;;;;;;5.10;2.27;;;9.40;90.40;;;;;;10291559;28;20291;-88
2022/04/06 01:12:36;;;;;;;3.97;2.40;;;11.00;76.60;;;;;;10281081;28;20257;-88
2022/04/06 01:17:38;;;;;;;5.80;4.27;;;12.50;70.00;;;;;;10251482;28;20238;-88
2022/04/06 01:22:41;;;;;;;2.93;2.10;;;12.60;72.10;;;;;;10258713;28;20198;-88
2022/04/06 01:27:43;;;;;;;3.90;2.67;;;12.00;70.30;;;;;;10287993;28;20230;-89
2022/04/06 01:32:46;;;;;;;2.97;2.47;;;12.00;70.10;;;;;;10272722;28;20241;-88
2022/04/06 01:37:48;;;;;;;3.80;2.13;;;12.30;68.90;;;;;;10284907;28;20580;-88
2022/04/06 01:42:51;;;;;;;3.87;2.30;;;12.50;67.90;;;;;;10290016;28;20242;-88
2022/04/06 01:47:54;;;;;;;4.03;2.40;;;12.40;68.30;;;;;;10256406;28;20275;-88
2022/04/06 01:52:56;;;;;;;5.37;3.43;;;11.70;70.90;;;;;;10262508;28;20648;-89
2022/04/06 01:57:59;;;;;;;5.50;3.10;;;11.10;75.10;;;;;;10287623;28;20269;-88
2022/04/06 02:03:02;;;;;;;5.40;3.50;;;10.60;76.30;;;;;;10261126;28;20230;-88
2022/04/06 02:08:04;;;;;;;3.80;2.70;;;10.90;74.70;;;;;;10287625;28;20238;-88
2022/04/06 02:13:07;;;;;;;4.20;2.90;;;11.50;72.20;;;;;;10279200;28;20254;-88
2022/04/06 02:18:10;;;;;;;2.50;2.00;;;11.70;71.10;;;;;;10265864;28;20226;-88
2022/04/06 02:23:12;;;;;;;4.43;2.73;;;11.60;71.30;;;;;;10288111;28;20640;-88
2022/04/06 02:28:15;;;;;;;3.20;2.80;;;11.20;73.60;;;;;;10259715;28;20236;-88
2022/04/06 02:33:17;;;;;;;6.97;5.97;;;11.00;73.70;;;;;;10278232;28;20308;-88
2022/04/06 02:38:20;;;;;;;6.20;4.23;;;11.00;75.60;;;;;;10282908;28;20667;-89
2022/04/06 02:43:25;;;;;;;5.50;4.03;;;10.40;76.70;;;;;;10274092;28;20242;-89
2022/04/06 02:48:28;;;;;;;8.07;4.50;;;10.40;77.60;;;;;;10252642;28;20685;-88
2022/04/06 02:53:31;;;;;;;6.30;4.37;;;9.90;80.80;;;;;;10268501;28;20320;-88
2022/04/06 02:58:34;;;;;;;6.77;3.97;;;9.70;81.80;;;;;;10247715;28;20265;-88
2022/04/06 03:03:36;;;;;;;10.77;5.10;;;9.30;84.80;;;;;;10274739;28;20280;-88
2022/04/06 03:08:39;;;;;;;6.40;5.67;;;9.60;84.60;;;;;;10288129;28;20630;-88
2022/04/06 03:13:41;;;;;;;5.93;4.03;;;8.50;92.90;;;;;;10278089;28;20261;-88
2022/04/06 03:18:44;;;;;;;5.63;5.03;;;9.00;88.90;;;;;;10264887;28;20280;-88
2022/04/06 03:23:47;;;;;;;4.30;3.50;;;9.80;84.20;;;;;;10247010;28;20246;-89
2022/04/06 03:28:49;;;;;;;4.30;3.40;;;9.10;88.20;;;;;;10260964;28;20233;-88
2022/04/06 03:33:52;;;;;;;3.40;2.50;;;10.10;82.90;;;;;;10277761;28;20671;-88
2022/04/06 03:38:55;;;;;;;6.37;4.30;;;9.60;83.20;;;;;;10263622;28;20549;-88
2022/04/06 03:43:57;;;;;;;7.20;4.13;;;9.90;85.50;;;;;;10275593;28;20292;-89
2022/04/06 03:49:00;;;;;;;3.63;2.50;;;8.60;93.40;;;;;;10267644;28;20385;-88
2022/04/06 03:54:03;;;;;;;6.30;4.87;;;10.10;81.70;;;;;;10246395;28;20257;-88
2022/04/06 03:59:06;;;;;;;5.10;3.77;;;9.60;89.50;;;;;;10264481;28;20300;-91
2022/04/06 04:04:10;;;;;;;6.77;4.30;;;10.70;78.40;;;;;;10256150;28;20234;-92
2022/04/06 04:09:12;;;;;;;5.00;3.40;;;10.80;80.60;;;;;;10245246;28;20292;-92
2022/04/06 04:14:15;;;;;;;2.70;1.90;;;10.90;75.20;;;;;;10244255;28;20246;-91
2022/04/06 04:19:17;;;;;;;4.20;2.50;;;11.50;73.10;;;;;;10250371;28;21643;-91
2022/04/06 04:24:20;;;;;;;5.43;3.07;;;11.70;73.40;;;;;;10272025;28;20284;-90
2022/04/06 04:29:22;;;;;;;4.83;3.97;;;10.70;79.10;;;;;;10256113;28;20277;-92
2022/04/06 04:34:25;;;;;;;3.63;2.80;;;10.60;78.60;;;;;;10282182;28;20911;-91
2022/04/06 04:39:27;;;;;;;2.27;1.93;;;11.10;76.10;;;;;;10278506;28;20252;-90
2022/04/06 04:44:30;;;;;;;5.37;4.73;;;11.20;73.70;;;;;;10273386;28;20242;-91
2022/04/06 04:49:33;;;;;;;9.90;6.53;;;11.30;78.50;;;;;;10274468;28;20698;-90
2022/04/06 04:54:36;;;;;;;7.13;5.80;;;12.40;72.20;;;;;;10268726;28;20285;-90
2022/04/06 04:59:38;;;;;;;7.77;6.57;;;10.30;83.20;;;;;;10283340;28;20274;-91
2022/04/06 05:04:41;;;;;;;10.77;7.63;;;10.60;82.00;;;;;;10289570;28;20241;-91
2022/04/06 05:09:44;;;;;;;7.00;5.17;;;10.60;78.40;;;;;;10269774;28;20233;-90
2022/04/06 05:14:46;;;;;;;6.27;4.80;;;10.60;81.50;;;;;;10291066;28;20644;-91
2022/04/06 05:19:49;;;;;;;3.23;2.60;;;10.90;78.90;;;;;;10278805;28;20233;-90
2022/04/06 05:24:53;;;;;;;2.07;1.87;;;11.20;74.90;;;;;;10268030;28;20213;-89
2022/04/06 05:29:55;;;;;;;6.40;3.40;;;12.30;70.00;;;;;;10291978;28;20600;-90
2022/04/06 05:34:58;;;;;;;3.27;2.30;;;12.00;72.10;;;;;;10271208;28;20270;-90
2022/04/06 05:40:01;;;;;;;2.50;2.13;;;11.90;71.20;;;;;;10252678;28;20294;-91
2022/04/06 05:45:06;;;;;;;5.43;4.90;;;12.90;67.40;;;;;;10233830;28;20710;-89
2022/04/06 05:50:10;;;;;;;4.47;3.47;;;12.80;70.70;;;;;;10265620;28;20229;-91
2022/04/06 05:55:13;;;;;;;5.83;5.23;;;13.10;71.40;;;;;;10266433;28;20603;-89
2022/04/06 06:00:16;;;;;;;8.37;5.00;;;11.60;84.20;;;;;;10248996;29;20269;-88
2022/04/06 06:05:18;;;;;;;5.00;4.50;;;13.10;76.30;;;;;;10273926;28;20607;-88
2022/04/06 06:10:21;;;;;;;4.73;3.50;;;13.10;75.40;;;;;;10281790;28;20346;-89
2022/04/06 06:15:24;;;;;;;16.27;9.00;;;13.30;74.20;;;;;;10253575;28;20262;-89
2022/04/06 06:20:27;;;;;;;30.00;16.47;;;12.90;75.80;;;;;;10248506;29;20233;-89
2022/04/06 06:25:30;;;;;;;5.93;3.40;;;12.60;77.60;;;;;;10249033;28;20274;-89
2022/04/06 06:30:32;;;;;;;10.60;5.80;;;12.70;75.50;;;;;;10236504;28;20293;-88
2022/04/06 06:35:35;;;;;;;13.83;7.80;;;12.80;75.00;;;;;;10267393;28;20253;-90
2022/04/06 06:40:38;;;;;;;15.87;9.00;;;12.60;76.40;;;;;;10249051;28;20911;-88
2022/04/06 06:45:40;;;;;;;7.07;5.77;;;12.20;78.70;;;;;;10209197;29;20682;-90
2022/04/06 06:50:43;;;;;;;5.43;3.47;;;12.00;79.10;;;;;;10240543;28;20284;-90
2022/04/06 06:55:46;;;;;;;5.17;3.97;;;12.00;78.30;;;;;;10251770;28;20261;-89
2022/04/06 07:00:49;;;;;;;3.10;2.77;;;12.50;75.80;;;;;;10228256;29;20325;-90
2022/04/06 07:05:52;;;;;;;3.57;2.60;;;13.80;71.30;;;;;;10208710;29;20215;-89
2022/04/06 07:10:55;;;;;;;10.60;7.83;;;14.50;68.20;;;;;;10223986;29;20296;-89
2022/04/06 07:15:58;;;;;;;4.80;3.33;;;15.10;68.40;;;;;;10247601;28;20316;-89
2022/04/06 07:21:01;;;;;;;6.47;3.17;;;15.20;65.40;;;;;;10266634;28;20639;-89
2022/04/06 07:26:04;;;;;;;4.67;2.80;;;15.30;66.60;;;;;;10264068;28;20284;-89
2022/04/06 07:31:06;;;;;;;4.33;2.93;;;15.40;64.80;;;;;;10220253;28;20216;-89
2022/04/06 07:36:09;;;;;;;8.20;5.50;;;15.60;64.20;;;;;;10206780;28;20273;-90
2022/04/06 07:41:12;;;;;;;5.27;3.67;;;15.60;68.30;;;;;;10272455;28;20206;-89
2022/04/06 07:46:14;;;;;;;5.07;3.57;;;15.60;65.50;;;;;;10301157;28;20185;-90
2022/04/06 07:51:17;;;;;;;5.70;4.27;;;15.60;64.80;;;;;;10310316;28;20186;-91
2022/04/06 07:56:20;;;;;;;8.07;5.30;;;15.50;72.00;;;;;;10338661;28;20206;-90
2022/04/06 08:01:22;;;;;;;7.00;5.00;;;14.60;80.20;;;;;;10280263;28;20266;-90
2022/04/06 08:06:25;;;;;;;5.23;4.27;;;15.00;79.10;;;;;;10266037;28;20183;-90
2022/04/06 08:11:27;;;;;;;9.30;6.83;;;15.20;77.90;;;;;;10284384;28;20194;-85
2022/04/06 08:16:30;;;;;;;9.30;7.07;;;14.80;83.20;;;;;;10325285;28;20209;-84
2022/04/06 08:21:32;;;;;;;7.17;5.07;;;14.00;90.30;;;;;;10334173;28;20211;-85
2022/04/06 08:26:35;;;;;;;6.73;5.00;;;15.00;90.90;;;;;;10284295;28;20183;-86
2022/04/06 08:31:38;;;;;;;5.07;4.00;;;15.30;92.00;;;;;;10310123;28;20178;-85
2022/04/06 08:36:43;;;;;;;4.60;4.20;;;15.50;93.10;;;;;;10308332;28;20445;-84
2022/04/06 08:41:46;;;;;;;4.77;3.93;;;15.60;93.70;;;;;;10271962;28;20204;-85
2022/04/06 08:46:50;;;;;;;3.77;3.47;;;15.70;94.20;;;;;;10306441;28;20181;-85
2022/04/06 08:51:53;;;;;;;3.83;3.43;;;15.80;94.20;;;;;;10308755;28;20189;-85
2022/04/06 08:56:56;;;;;;;3.60;3.30;;;15.90;95.30;;;;;;10325443;28;20222;-85
2022/04/06 09:01:59;;;;;;;6.37;3.40;;;16.00;95.50;;;;;;10309158;28;20178;-85
2022/04/06 09:07:09;;;;;;;4.17;3.40;;;16.10;95.80;;;;;;10309252;28;20202;-85
2022/04/06 09:12:17;;;;;;;3.47;2.97;;;16.20;95.90;;;;;;10309683;28;20199;-85
2022/04/06 09:17:20;;;;;;;3.60;3.10;;;16.20;96.60;;;;;;10308763;28;20171;-85
2022/04/06 09:22:23;;;;;;;3.30;3.00;;;16.20;96.90;;;;;;10295492;28;20187;-84
2022/04/06 09:27:30;;;;;;;3.70;2.87;;;16.20;97.40;;;;;;10268704;28;20223;-85
2022/04/06 09:32:33;;;;;;;5.30;2.83;;;16.20;97.40;;;;;;10268629;28;20304;-85
2022/04/06 09:37:37;;;;;;;3.13;2.43;;;16.20;97.50;;;;;;10272824;28;20170;-85
2022/04/06 09:42:50;;;;;;;4.37;3.10;;;16.20;98.00;;;;;;10270451;28;20179;-85
2022/04/06 09:47:54;;;;;;;2.90;2.60;;;16.10;98.50;;;;;;10285365;28;20200;-85
2022/04/06 09:52:57;;;;;;;5.27;2.77;;;16.10;98.70;;;;;;10308384;28;20201;-85
2022/04/06 09:58:04;;;;;;;3.00;2.70;;;16.00;99.20;;;;;;10291618;28;20987;-86
2022/04/06 10:03:15;;;;;;;4.00;3.27;;;16.00;99.60;;;;;;10269429;28;20572;-87
2022/04/06 10:08:18;;;;;;;5.33;3.37;;;15.90;99.90;;;;;;10300509;28;20201;-87
2022/04/06 10:13:21;;;;;;;3.83;3.30;;;16.00;99.90;;;;;;10298442;28;20562;-87
2022/04/06 10:18:45;;;;;;;3.97;3.33;;;16.00;99.90;;;;;;10293999;28;20244;-87
2022/04/06 10:24:20;;;;;;;2.80;2.60;;;15.90;99.90;;;;;;10253537;29;20285;-87
2022/04/06 10:29:22;;;;;;;4.70;3.07;;;15.90;99.90;;;;;;10251392;28;20237;-87
2022/04/06 10:34:30;;;;;;;4.03;3.07;;;16.00;99.90;;;;;;10252523;28;20227;-86
2022/04/06 10:39:52;;;;;;;3.40;3.10;;;16.10;99.90;;;;;;10229681;29;20305;-87
2022/04/06 10:44:55;;;;;;;4.67;3.50;;;16.10;99.90;;;;;;10233302;29;20261;-87
2022/04/06 10:50:21;;;;;;;5.00;3.70;;;16.10;99.90;;;;;;10233388;29;20226;-87
2022/04/06 10:55:25;;;;;;;3.10;2.80;;;16.10;99.70;;;;;;10226712;29;20234;-86
2022/04/06 11:00:28;;;;;;;7.17;3.47;;;16.00;99.60;;;;;;10252143;29;20250;-87
2022/04/06 11:05:49;;;;;;;4.00;3.60;;;16.10;99.60;;;;;;10254185;29;20253;-87
2022/04/06 11:11:11;;;;;;;7.77;3.53;;;16.00;99.70;;;;;;10247406;29;20272;-87
2022/04/06 11:16:40;;;;;;;4.57;3.30;;;16.00;99.60;;;;;;10248945;28;20261;-87
2022/04/06 11:21:55;;;;;;;3.83;3.10;;;15.90;99.50;;;;;;10247533;29;20370;-88
2022/04/06 11:26:58;;;;;;;3.50;3.20;;;15.90;99.50;;;;;;10246874;29;20238;-87
2022/04/06 11:32:04;;;;;;;5.57;3.57;;;16.10;99.10;;;;;;10247402;29;20230;-87
2022/04/06 11:37:08;;;;;;;6.53;3.33;;;16.10;98.60;;;;;;10246909;29;20273;-87
2022/04/06 11:42:16;;;;;;;4.00;3.37;;;16.20;98.50;;;;;;10245856;28;20274;-87
2022/04/06 11:47:31;;;;;;;6.13;3.50;;;16.10;98.50;;;;;;10284899;28;20235;-87
2022/04/06 11:52:34;;;;;;;5.33;3.37;;;15.90;98.60;;;;;;10286245;28;20229;-86
2022/04/06 11:57:39;;;;;;;7.00;5.57;;;15.80;99.00;;;;;;10285916;28;20264;-86
2022/04/06 12:02:52;;;;;;;9.10;6.93;;;15.60;96.10;;;;;;10286910;28;20288;-87
2022/04/06 12:08:08;;;;;;;8.17;5.10;;;15.60;95.10;;;;;;10269698;28;20226;-87
2022/04/06 12:13:11;;;;;;;8.23;5.37;;;15.80;95.00;;;;;;10245559;29;20264;-87
2022/04/06 12:18:18;;;;;;;4.63;4.13;;;15.90;94.60;;;;;;10245756;29;20226;-87
2022/04/06 12:23:23;;;;;;;8.07;5.57;;;15.80;94.90;;;;;;10246853;29;20234;-86
2022/04/06 12:28:27;;;;;;;9.43;5.03;;;15.70;93.90;;;;;;10246760;29;20237;-86
2022/04/06 12:33:39;;;;;;;8.87;4.23;;;15.90;94.90;;;;;;10277215;28;20325;-86
2022/04/06 12:39:00;;;;;;;4.90;4.37;;;16.00;94.80;;;;;;10269428;28;20285;-86
2022/04/06 12:44:13;;;;;;;7.23;5.03;;;15.90;95.20;;;;;;10282311;28;20668;-87
2022/04/06 12:49:42;;;;;;;6.33;4.87;;;15.70;94.50;;;;;;10285442;28;20241;-86
2022/04/06 12:54:46;;;;;;;5.20;4.17;;;15.60;96.30;;;;;;10275691;28;20327;-86
2022/04/06 13:00:10;;;;;;;7.00;4.73;;;15.50;96.30;;;;;;10292301;28;20256;-87
2022/04/06 13:05:32;;;;;;;4.37;3.70;;;15.50;96.30;;;;;;10270108;28;20360;-87
2022/04/06 13:10:35;;;;;;;9.37;5.50;;;15.50;96.40;;;;;;10252902;29;20241;-86
2022/04/06 13:15:37;;;;;;;5.67;4.30;;;15.40;93.90;;;;;;10212789;29;20324;-86
2022/04/06 13:20:40;;;;;;;5.37;4.17;;;15.50;96.40;;;;;;10220980;28;20206;-85
2022/04/06 13:25:42;;;;;;;4.73;4.13;;;15.50;96.30;;;;;;10236420;28;20638;-85
2022/04/06 13:30:45;;;;;;;5.30;4.10;;;15.60;95.90;;;;;;10235789;29;20312;-86
2022/04/06 13:35:49;;;;;;;5.60;4.07;;;15.50;95.70;;;;;;10210947;29;20255;-85
2022/04/06 13:40:52;;;;;;;7.33;4.93;;;15.50;95.80;;;;;;10245169;28;20242;-85
2022/04/06 13:45:54;;;;;;;5.53;4.00;;;15.50;92.20;;;;;;10250357;28;20246;-85
2022/04/06 13:50:57;;;;;;;5.13;4.63;;;15.60;95.50;;;;;;10251157;29;20234;-85
2022/04/06 13:55:59;;;;;;;5.67;4.80;;;15.50;94.50;;;;;;10246920;29;20672;-85
2022/04/06 14:01:02;;;;;;;6.40;4.77;;;15.60;94.20;;;;;;10211143;29;20643;-86
2022/04/06 14:06:05;;;;;;;7.93;5.17;;;15.70;94.40;;;;;;10213089;29;20621;-85
2022/04/06 14:11:08;;;;;;;8.93;4.80;;;15.60;93.30;;;;;;10225315;29;20243;-85
2022/04/06 14:16:10;;;;;;;4.10;3.70;;;15.60;93.40;;;;;;10210251;29;20258;-85
2022/04/06 14:21:14;;;;;;;14.00;7.53;;;15.70;94.40;;;;;;10248617;28;20612;-85
2022/04/06 14:26:18;;;;;;;9.07;6.77;;;15.30;82.70;;;;;;10265777;28;20233;-90
2022/04/06 14:31:20;;;;;;;10.93;6.33;;;14.50;82.80;;;;;;10257086;28;20316;-90
2022/04/06 14:36:23;;;;;;;10.83;5.93;;;14.60;82.70;;;;;;10244835;28;20313;-91
2022/04/06 14:41:26;;;;;;;13.43;8.60;;;14.90;81.20;;;;;;10245664;29;20269;-90
2022/04/06 14:46:28;;;;;;;6.67;5.10;;;14.90;80.60;;;;;;10246659;29;20238;-90
2022/04/06 14:51:32;;;;;;;10.63;6.67;;;15.10;80.80;;;;;;10247649;28;20254;-90
2022/04/06 14:56:35;;;;;;;7.57;5.27;;;15.20;78.80;;;;;;10248378;28;20312;-90
2022/04/06 15:01:42;;;;;;;8.33;5.10;;;15.20;80.00;;;;;;10246823;28;20234;-90
2022/04/06 15:06:45;;;;;;;11.00;5.90;;;15.40;79.90;;;;;;10250038;28;20316;-87
2022/04/06 15:11:48;;;;;;;8.17;5.20;;;15.30;79.00;;;;;;10273757;28;20695;-87
2022/04/06 15:16:50;;;;;;;7.93;4.23;;;15.70;78.70;;;;;;10269935;28;20304;-87
2022/04/06 15:21:53;;;;;;;5.67;4.20;;;16.10;78.20;;;;;;10256558;28;20235;-87
2022/04/06 15:26:56;;;;;;;11.13;5.23;;;16.30;78.30;;;;;;10213817;28;20303;-87
2022/04/06 15:32:05;;;;;;;8.03;4.23;;;;;;;;;;10247022;28;20234;-87
2022/04/06 15:37:20;;;;;;;8.67;5.20;;;16.50;78.50;;;;;;10261321;28;20315;-87
2022/04/06 15:42:26;;;;;;;15.40;4.50;;;16.50;79.50;;;;;;10254452;28;20238;-87
2022/04/06 15:47:29;;;;;;;5.13;3.40;;;16.20;77.90;;;;;;10242079;28;20715;-87
2022/04/06 15:52:32;;;;;;;7.40;4.20;;;16.30;81.20;;;;;;10258179;28;20273;-87
2022/04/06 15:57:35;;;;;;;5.47;2.93;;;16.60;80.60;;;;;;10246077;28;20319;-87
2022/04/06 16:02:37;;;;;;;6.00;3.30;;;16.70;80.30;;;;;;10244257;28;20735;-87
2022/04/06 16:07:40;;;;;;;3.00;2.70;;;16.70;80.50;;;;;;10243689;28;20249;-87
2022/04/06 16:12:42;;;;;;;4.57;3.40;;;16.70;80.80;;;;;;10252565;28;20291;-86
2022/04/06 16:17:45;;;;;;;5.53;3.03;;;16.70;80.80;;;;;;10283107;28;20312;-87
2022/04/06 16:22:47;;;;;;;8.77;3.60;;;16.60;81.00;;;;;;10265225;28;20238;-87
2022/04/06 16:27:50;;;;;;;5.70;3.30;;;16.50;81.40;;;;;;10261918;28;20684;-87
2022/04/06 16:32:52;;;;;;;5.70;3.10;;;16.50;81.80;;;;;;10295599;28;20260;-87
2022/04/06 16:37:55;;;;;;;3.27;2.97;;;16.50;81.70;;;;;;10294145;28;20284;-87
2022/04/06 16:42:58;;;;;;;4.77;3.07;;;16.50;82.00;;;;;;10292904;28;20705;-87
2022/04/06 16:48:01;;;;;;;23.07;9.70;;;16.50;82.10;;;;;;10255678;28;20682;-87
2022/04/06 16:53:03;;;;;;;21.37;10.67;;;15.80;73.90;;;;;;10252870;29;20296;-86
2022/04/06 16:58:06;;;;;;;23.07;6.13;;;14.90;74.40;;;;;;10250154;29;20345;-87
2022/04/06 17:03:10;;;;;;;21.03;11.60;;;14.60;81.30;;;;;;10249010;28;20281;-87
2022/04/06 17:08:13;;;;;;;7.03;5.17;;;13.80;78.50;;;;;;10249341;29;20238;-86
2022/04/06 17:13:16;;;;;;;13.13;7.57;;;14.10;83.90;;;;;;10246396;28;20675;-85
2022/04/06 17:18:19;;;;;;;10.73;7.57;;;13.90;83.50;;;;;;10259667;28;20253;-85
2022/04/06 17:23:29;;;;;;;11.13;8.40;;;14.30;82.10;;;;;;10246453;29;20242;-86
2022/04/06 17:28:33;;;;;;;10.80;6.87;;;14.50;79.40;;;;;;10229556;29;20238;-86
2022/04/06 17:33:36;;;;;;;11.63;8.10;;;14.50;81.40;;;;;;10262419;28;20261;-86
2022/04/06 17:38:39;;;;;;;18.13;10.73;;;14.50;80.10;;;;;;10247730;28;20285;-86
2022/04/06 17:43:42;;;;;;;27.03;13.83;;;14.10;80.30;;;;;;10246726;29;20826;-86
2022/04/06 17:48:46;;;;;;;27.53;17.37;;;13.90;77.80;;;;;;10236586;29;20234;-86
2022/04/06 17:53:49;;;;;;;29.37;17.40;;;12.10;84.30;;;;;;10245039;29;20221;-86
2022/04/06 17:58:52;;;;;;;29.57;19.03;;;10.90;90.60;;;;;;10246681;28;20286;-86
2022/04/06 18:03:54;;;;;;;54.73;27.80;;;10.40;93.10;;;;;;10261388;28;20296;-85
2022/04/06 18:08:58;;;;;;;55.20;28.93;;;10.10;95.70;;;;;;10246518;29;20244;-85
2022/04/06 18:14:01;;;;;;;56.83;30.00;;;9.60;98.10;;;;;;10246694;29;20244;-85
2022/04/06 18:19:03;;;;;;;65.47;35.23;;;9.50;99.90;;;;;;10249707;29;20804;-86
2022/04/06 18:24:06;;;;;;;74.90;37.57;;;9.30;99.90;;;;;;10246983;28;20237;-86
2022/04/06 18:29:12;;;;;;;65.50;33.63;;;9.30;99.90;;;;;;10247815;29;20678;-86
2022/04/06 18:34:14;;;;;;;41.63;22.87;;;9.40;99.90;;;;;;10246892;29;20289;-86
2022/04/06 18:39:18;;;;;;;37.90;21.10;;;9.60;99.90;;;;;;10245344;29;20233;-86
2022/04/06 18:44:21;;;;;;;53.77;25.70;;;9.80;99.90;;;;;;10254487;28;20618;-87
2022/04/06 18:49:23;;;;;;;56.50;27.57;;;9.90;99.90;;;;;;10246244;28;20207;-87
2022/04/06 18:54:27;;;;;;;46.40;25.83;;;10.10;99.90;;;;;;10244819;29;20239;-87
2022/04/06 18:59:29;;;;;;;47.10;23.40;;;10.10;99.90;;;;;;10246848;29;20327;-87
2022/04/06 19:04:32;;;;;;;36.57;20.90;;;10.20;99.40;;;;;;10237905;28;20287;-86
2022/04/06 19:09:35;;;;;;;36.83;21.27;;;10.20;99.60;;;;;;10245552;29;20261;-86
2022/04/06 19:14:41;;;;;;;51.33;22.50;;;10.10;99.90;;;;;;10248967;28;20702;-86
2022/04/06 19:19:44;;;;;;;43.43;21.37;;;9.90;99.90;;;;;;10248871;28;20248;-86
2022/04/06 19:24:46;;;;;;;41.47;21.40;;;9.90;99.90;;;;;;10247048;28;20230;-86
2022/04/06 19:29:49;;;;;;;45.67;22.63;;;9.80;99.90;;;;;;10241012;29;20625;-86
2022/04/06 19:34:52;;;;;;;39.67;22.83;;;9.90;99.90;;;;;;10245730;28;20260;-86
2022/04/06 19:39:54;;;;;;;38.30;19.87;;;9.90;99.90;;;;;;10247538;29;20241;-86
2022/04/06 19:44:57;;;;;;;59.57;28.30;;;9.80;99.90;;;;;;10237224;28;20245;-86
2022/04/06 19:50:00;;;;;;;61.30;33.00;;;9.70;99.90;;;;;;10245755;28;20249;-87
2022/04/06 19:55:03;;;;;;;49.43;29.93;;;9.60;99.90;;;;;;10246631;29;20252;-86
2022/04/06 20:00:09;;;;;;;54.50;28.37;;;9.60;99.90;;;;;;10256645;28;20300;-86
2022/04/06 20:05:12;;;;;;;46.47;24.57;;;9.30;99.90;;;;;;10252883;28;20675;-86
2022/04/06 20:10:14;;;;;;;52.10;27.70;;;9.20;99.90;;;;;;10253484;28;20292;-86
2022/04/06 20:15:17;;;;;;;46.40;25.83;;;;;;;;;;10253675;29;20641;-87
2022/04/06 20:20:20;;;;;;;48.93;28.50;;;8.50;99.90;;;;;;10255238;28;20259;-87
2022/04/06 20:25:23;;;;;;;54.40;28.83;;;8.30;99.90;;;;;;10254747;28;20227;-85
2022/04/06 20:30:26;;;;;;;49.33;27.50;;;8.20;99.90;;;;;;10253806;28;20228;-86
2022/04/06 20:35:28;;;;;;;49.73;26.40;;;8.10;99.90;;;;;;10252972;29;20258;-86
2022/04/06 20:40:31;;;;;;;55.77;28.57;;;8.00;99.90;;;;;;10270561;28;20208;-87
2022/04/06 20:45:34;;;;;;;60.00;30.60;;;8.00;99.90;;;;;;10252706;28;20216;-87
2022/04/06 20:50:38;;;;;;;68.00;35.07;;;8.00;99.90;;;;;;10253192;29;20269;-87
2022/04/06 20:55:43;;;;;;;69.30;34.10;;;7.90;99.90;;;;;;10260489;28;20289;-87
2022/04/06 21:00:47;;;;;;;72.63;39.33;;;7.90;99.90;;;;;;10252298;28;20297;-87
2022/04/06 21:05:49;;;;;;;70.33;39.47;;;7.80;99.90;;;;;;10268709;28;20270;-87
2022/04/06 21:10:52;;;;;;;69.00;37.67;;;7.80;99.90;;;;;;10264335;28;20695;-87
2022/04/06 21:15:54;;;;;;;61.47;35.53;;;7.60;99.90;;;;;;10258442;28;21043;-87
2022/04/06 21:21:02;;;;;;;69.27;36.93;;;7.50;99.90;;;;;;10277376;28;20222;-87
2022/04/06 21:26:04;;;;;;;62.60;35.57;;;7.60;99.90;;;;;;10250285;29;20294;-87
2022/04/06 21:31:07;;;;;;;50.73;27.30;;;7.50;99.90;;;;;;10251458;28;20246;-88
2022/04/06 21:36:10;;;;;;;45.20;24.03;;;7.60;99.90;;;;;;10251719;29;20262;-87
2022/04/06 21:41:12;;;;;;;52.27;25.90;;;7.70;99.90;;;;;;10265945;28;20234;-87
2022/04/06 21:46:15;;;;;;;50.93;26.33;;;7.90;99.90;;;;;;10250330;28;20253;-87
2022/04/06 21:51:17;;;;;;;50.50;23.53;;;8.10;99.90;;;;;;10265508;28;20247;-87
2022/04/06 21:56:20;;;;;;;38.30;20.70;;;8.20;99.90;;;;;;10247583;28;20721;-87
2022/04/06 22:01:23;;;;;;;37.50;20.70;;;8.20;99.90;;;;;;10257529;28;20261;-87
2022/04/06 22:06:26;;;;;;;43.73;22.10;;;8.10;99.90;;;;;;10276771;28;20292;-87
2022/04/06 22:11:28;;;;;;;39.13;20.77;;;7.90;99.90;;;;;;10274691;28;20304;-87
2022/04/06 22:16:31;;;;;;;36.17;18.63;;;7.70;99.90;;;;;;10289507;28;20315;-87
2022/04/06 22:21:34;;;;;;;35.20;19.63;;;7.60;99.90;;;;;;10290629;28;20258;-87
2022/04/06 22:26:36;;;;;;;32.40;19.37;;;7.60;99.90;;;;;;10285661;28;20295;-86
2022/04/06 22:31:39;;;;;;;28.50;18.43;;;7.40;99.90;;;;;;10288074;28;20209;-87
2022/04/06 22:36:41;;;;;;;37.40;21.53;;;7.30;99.90;;;;;;10237095;29;20262;-87
2022/04/06 22:41:43;;;;;;;37.03;21.37;;;7.20;99.90;;;;;;10249073;28;20218;-87
2022/04/06 22:46:47;;;;;;;37.17;20.50;;;7.10;99.90;;;;;;10250049;29;20299;-86
2022/04/06 22:51:49;;;;;;;34.87;19.17;;;7.10;99.90;;;;;;10250961;28;20202;-86
2022/04/06 22:56:51;;;;;;;34.93;20.50;;;6.90;99.90;;;;;;10251305;28;20250;-86
2022/04/06 23:01:54;;;;;;;32.30;18.00;;;6.80;99.90;;;;;;10259339;28;20253;-86
2022/04/06 23:06:57;;;;;;;34.00;19.40;;;6.80;99.90;;;;;;10250052;29;20270;-87
2022/04/06 23:12:00;;;;;;;31.77;17.30;;;6.90;99.90;;;;;;10248842;29;20237;-87
2022/04/06 23:17:03;;;;;;;33.53;18.70;;;6.80;99.90;;;;;;10261727;28;20253;-87
2022/04/06 23:22:05;;;;;;;32.90;18.37;;;7.00;99.90;;;;;;10294722;28;20202;-89
2022/04/06 23:27:08;;;;;;;36.07;19.17;;;7.00;99.90;;;;;;10272905;28;20233;-87
2022/04/06 23:32:11;;;;;;;33.70;18.43;;;7.20;99.90;;;;;;10247873;28;20312;-86
2022/04/06 23:37:13;;;;;;;34.23;19.57;;;7.40;99.90;;;;;;10287088;28;20257;-86
2022/04/06 23:42:16;;;;;;;35.83;16.67;;;7.50;99.90;;;;;;10264899;28;20346;-87
2022/04/06 23:47:18;;;;;;;30.93;19.07;;;7.60;99.90;;;;;;10249896;28;20278;-87
2022/04/06 23:52:21;;;;;;;30.77;17.83;;;7.80;99.90;;;;;;10286722;28;20233;-87
2022/04/06 23:57:24;;;;;;;33.57;19.50;;;7.80;99.90;;;;;;10207523;29;20275;-87
